createdAt,value
2022-07-30T00:01:40.710Z,20.91
2022-07-30T00:04:07.841Z,20.80
2022-07-30T00:06:37.896Z,20.79
2022-07-30T00:09:05.362Z,20.75
2022-07-30T00:11:32.362Z,20.69
2022-07-30T00:13:59.652Z,20.71
2022-07-30T00:16:26.954Z,20.73
2022-07-30T00:18:54.200Z,20.67
2022-07-30T00:21:35.598Z,20.68
2022-07-30T00:24:04.112Z,20.65
2022-07-30T00:26:31.425Z,20.55
2022-07-30T00:28:58.905Z,20.48
2022-07-30T00:31:25.946Z,20.46
2022-07-30T00:33:53.090Z,20.50
2022-07-30T00:36:20.158Z,20.46
2022-07-30T00:38:47.509Z,20.45
2022-07-30T00:41:15.620Z,20.40
2022-07-30T00:43:43.246Z,20.36
2022-07-30T00:46:10.770Z,20.34
2022-07-30T00:48:38.210Z,20.39
2022-07-30T00:51:05.492Z,20.25
2022-07-30T00:53:32.951Z,20.10
2022-07-30T00:56:00.119Z,20.04
2022-07-30T00:58:27.704Z,19.94
2022-07-30T01:00:54.872Z,19.97
2022-07-30T01:03:22.075Z,19.98
2022-07-30T01:05:50.282Z,19.93
2022-07-30T01:08:17.650Z,20.01
2022-07-30T01:10:45.089Z,19.92
2022-07-30T01:13:13.081Z,19.96
2022-07-30T01:15:40.955Z,19.90
2022-07-30T01:18:12.596Z,19.85
2022-07-30T01:21:07.959Z,19.87
2022-07-30T01:23:46.047Z,19.83
2022-07-30T01:26:21.933Z,19.78
2022-07-30T01:28:52.475Z,19.78
2022-07-30T01:31:30.653Z,19.69
2022-07-30T01:37:05.904Z,19.70
2022-07-30T01:39:34.146Z,19.69
2022-07-30T01:42:05.580Z,19.58
2022-07-30T01:44:33.380Z,19.65
2022-07-30T01:47:02.418Z,19.59
2022-07-30T01:49:31.376Z,19.46
2022-07-30T01:52:03.784Z,19.38
2022-07-30T01:54:35.467Z,19.37
2022-07-30T01:57:03.487Z,19.35
2022-07-30T01:59:34.056Z,19.32
2022-07-30T02:02:01.535Z,19.28
2022-07-30T02:04:28.924Z,19.19
2022-07-30T02:07:17.434Z,19.14
2022-07-30T02:09:56.230Z,19.13
2022-07-30T02:12:32.009Z,19.09
2022-07-30T02:15:14.460Z,19.12
2022-07-30T02:17:52.693Z,19.15
2022-07-30T02:20:25.110Z,19.15
2022-07-30T02:23:01.539Z,19.12
2022-07-30T02:25:34.183Z,19.10
2022-07-30T02:28:06.421Z,19.15
2022-07-30T02:30:38.064Z,19.09
2022-07-30T02:33:13.544Z,19.04
2022-07-30T02:35:41.561Z,19.03
2022-07-30T02:38:11.195Z,18.98
2022-07-30T02:40:42.326Z,18.99
2022-07-30T02:43:10.243Z,19.06
2022-07-30T02:45:38.460Z,18.96
2022-07-30T02:48:08.092Z,18.96
2022-07-30T02:50:36.402Z,18.96
2022-07-30T02:53:06.154Z,18.88
2022-07-30T02:55:40.338Z,18.83
2022-07-30T02:58:08.204Z,18.77
2022-07-30T03:00:36.179Z,18.75
2022-07-30T03:03:07.865Z,18.78
2022-07-30T03:05:36.594Z,18.76
2022-07-30T03:08:05.397Z,18.72
2022-07-30T03:10:34.480Z,18.72
2022-07-30T03:13:04.778Z,18.69
2022-07-30T03:15:39.347Z,18.64
2022-07-30T03:18:10.830Z,18.68
2022-07-30T03:20:39.447Z,18.65
2022-07-30T03:23:08.640Z,18.60
2022-07-30T03:25:36.197Z,18.58
2022-07-30T03:28:06.905Z,18.62
2022-07-30T03:30:34.927Z,18.58
2022-07-30T03:33:02.897Z,18.68
2022-07-30T03:35:33.676Z,18.72
2022-07-30T03:38:01.685Z,18.74
2022-07-30T03:40:30.441Z,18.72
2022-07-30T03:42:58.366Z,18.70
2022-07-30T03:45:25.732Z,18.78
2022-07-30T03:47:53.729Z,18.75
2022-07-30T03:50:20.701Z,18.77
2022-07-30T03:52:48.166Z,18.82
2022-07-30T03:55:18.867Z,18.74
2022-07-30T03:57:46.214Z,18.78
2022-07-30T04:00:15.188Z,18.82
2022-07-30T04:02:46.744Z,18.87
2022-07-30T04:05:15.227Z,18.87
2022-07-30T04:07:45.259Z,18.92
2022-07-30T04:10:13.187Z,19.00
2022-07-30T04:12:40.379Z,19.07
2022-07-30T04:16:40.235Z,19.10
2022-07-30T04:18:02.684Z,19.25
2022-07-30T04:20:42.088Z,19.30
2022-07-30T04:23:10.935Z,19.52
2022-07-30T04:25:39.209Z,19.79
2022-07-30T04:28:07.333Z,20.10
2022-07-30T04:30:37.313Z,20.40
2022-07-30T04:33:05.300Z,20.71
2022-07-30T04:35:49.953Z,21.06
2022-07-30T04:38:19.734Z,21.41
2022-07-30T04:40:47.306Z,21.73
2022-07-30T04:43:14.273Z,22.09
2022-07-30T04:45:42.164Z,22.46
2022-07-30T04:48:09.173Z,22.67
2022-07-30T04:50:40.404Z,22.98
2022-07-30T04:53:09.091Z,23.31
2022-07-30T04:55:38.118Z,23.61
2022-07-30T04:58:06.365Z,23.85
2022-07-30T05:00:40.746Z,24.19
2022-07-30T05:03:12.072Z,24.46
2022-07-30T05:05:40.982Z,24.63
2022-07-30T05:08:08.439Z,24.90
2022-07-30T05:10:35.572Z,25.15
2022-07-30T05:13:02.739Z,25.37
2022-07-30T05:15:37.298Z,25.66
2022-07-30T05:18:04.727Z,25.93
2022-07-30T05:20:31.918Z,26.21
2022-07-30T05:22:58.970Z,26.48
2022-07-30T05:25:26.222Z,26.83
2022-07-30T05:27:53.530Z,27.10
2022-07-30T05:30:21.600Z,27.22
2022-07-30T05:32:56.117Z,27.48
2022-07-30T05:35:23.677Z,27.76
2022-07-30T05:37:50.653Z,28.03
2022-07-30T05:40:17.723Z,28.21
2022-07-30T05:42:44.998Z,28.49
2022-07-30T05:45:12.054Z,28.74
2022-07-30T05:47:39.034Z,28.94
2022-07-30T05:50:06.551Z,29.16
2022-07-30T05:52:33.902Z,29.39
2022-07-30T05:55:00.795Z,29.64
2022-07-30T05:57:27.659Z,29.84
2022-07-30T05:59:54.737Z,30.10
2022-07-30T06:02:24.183Z,30.39
2022-07-30T06:04:52.355Z,30.57
2022-07-30T06:07:19.816Z,30.77
2022-07-30T06:09:55.382Z,30.94
2022-07-30T06:12:24.139Z,31.22
2022-07-30T06:14:51.431Z,31.41
2022-07-30T06:17:20.187Z,31.38
2022-07-30T06:19:47.225Z,31.64
2022-07-30T06:22:14.317Z,31.79
2022-07-30T06:24:41.521Z,31.96
2022-07-30T06:27:08.669Z,32.12
2022-07-30T06:29:35.706Z,32.32
2022-07-30T06:32:02.935Z,32.39
2022-07-30T06:34:30.130Z,32.49
2022-07-30T06:36:57.313Z,32.56
2022-07-30T06:39:56.012Z,32.73
2022-07-30T06:42:11.685Z,33.02
2022-07-30T06:44:38.676Z,33.22
2022-07-30T06:47:08.165Z,33.39
2022-07-30T06:49:36.848Z,33.61
2022-07-30T06:52:05.008Z,33.56
2022-07-30T06:54:31.997Z,33.48
2022-07-30T06:56:59.376Z,33.68
2022-07-30T06:59:27.873Z,33.88
2022-07-30T07:01:55.153Z,34.04
2022-07-30T07:04:22.344Z,34.26
2022-07-30T07:06:49.397Z,34.30
2022-07-30T07:09:16.241Z,34.18
2022-07-30T07:11:43.306Z,34.35
2022-07-30T07:14:10.530Z,34.50
2022-07-30T07:16:37.706Z,34.37
2022-07-30T07:19:05.015Z,34.00
2022-07-30T07:21:32.254Z,34.13
2022-07-30T07:24:51.639Z,34.19
2022-07-30T07:27:16.967Z,34.31
2022-07-30T07:30:01.904Z,34.30
2022-07-30T07:32:36.136Z,34.26
2022-07-30T07:35:03.666Z,33.85
2022-07-30T07:37:30.814Z,33.88
2022-07-30T07:39:58.005Z,34.02
2022-07-30T07:42:25.363Z,33.90
2022-07-30T07:44:55.935Z,34.17
2022-07-30T07:47:23.649Z,34.19
2022-07-30T07:49:52.825Z,34.10
2022-07-30T07:52:20.211Z,34.07
2022-07-30T07:54:50.262Z,34.42
2022-07-30T07:57:17.576Z,34.49
2022-07-30T07:59:47.321Z,34.51
2022-07-30T08:02:16.673Z,34.86
2022-07-30T08:04:43.973Z,34.99
2022-07-30T08:07:10.937Z,34.93
2022-07-30T08:09:43.757Z,35.03
2022-07-30T08:12:14.270Z,35.09
2022-07-30T08:14:41.602Z,35.07
2022-07-30T08:17:09.198Z,35.01
2022-07-30T08:19:36.632Z,35.03
2022-07-30T08:22:04.000Z,35.32
2022-07-30T08:24:31.320Z,35.38
2022-07-30T08:26:58.660Z,35.55
2022-07-30T08:29:26.020Z,35.49
2022-07-30T08:31:53.081Z,35.17
2022-07-30T08:34:21.085Z,35.17
2022-07-30T08:36:52.998Z,35.41
2022-07-30T08:39:20.346Z,35.47
2022-07-30T08:41:48.148Z,35.58
2022-07-30T08:44:21.726Z,35.84
2022-07-30T08:46:52.109Z,35.94
2022-07-30T08:49:19.619Z,35.73
2022-07-30T08:51:46.955Z,35.73
2022-07-30T08:54:14.008Z,35.90
2022-07-30T08:56:41.312Z,36.03
2022-07-30T08:59:08.384Z,36.28
2022-07-30T09:01:35.396Z,36.35
2022-07-30T09:04:02.821Z,36.37
2022-07-30T09:06:30.258Z,35.84
2022-07-30T09:08:57.481Z,36.01
2022-07-30T09:11:25.116Z,35.72
2022-07-30T09:13:52.536Z,35.39
2022-07-30T09:16:25.869Z,34.84
2022-07-30T09:18:54.907Z,35.16
2022-07-30T09:21:25.426Z,35.43
2022-07-30T09:24:01.206Z,35.75
2022-07-30T09:26:30.117Z,35.91
2022-07-30T09:29:25.468Z,36.18
2022-07-30T09:32:01.648Z,36.39
2022-07-30T09:34:30.128Z,35.94
2022-07-30T09:37:03.166Z,35.88
2022-07-30T09:39:34.886Z,35.71
2022-07-30T09:42:04.300Z,36.01
2022-07-30T09:44:32.051Z,36.40
2022-07-30T09:46:59.837Z,35.96
2022-07-30T09:49:29.173Z,36.23
2022-07-30T09:51:57.916Z,36.30
2022-07-30T09:54:51.482Z,36.35
2022-07-30T09:57:25.705Z,36.44
2022-07-30T09:59:54.956Z,36.42
2022-07-30T10:02:28.947Z,36.41
2022-07-30T10:05:14.188Z,36.33
2022-07-30T10:07:51.188Z,36.45
2022-07-30T10:10:25.561Z,36.63
2022-07-30T10:12:58.419Z,36.81
2022-07-30T10:15:30.749Z,36.84
2022-07-30T10:18:00.798Z,36.52
2022-07-30T10:20:28.581Z,36.48
2022-07-30T10:22:55.915Z,36.44
2022-07-30T10:25:27.992Z,36.41
2022-07-30T10:27:57.743Z,36.19
2022-07-30T10:30:28.102Z,36.36
2022-07-30T10:32:59.850Z,36.29
2022-07-30T10:35:34.863Z,36.32
2022-07-30T10:38:13.892Z,36.39
2022-07-30T10:40:49.730Z,36.80
2022-07-30T10:43:31.629Z,36.91
2022-07-30T10:46:36.463Z,36.70
2022-07-30T10:49:18.701Z,36.47
2022-07-30T10:51:57.524Z,36.44
2022-07-30T10:54:39.218Z,36.66
2022-07-30T10:57:26.527Z,36.75
2022-07-30T11:00:00.691Z,36.65
2022-07-30T11:02:31.690Z,36.73
2022-07-30T11:05:44.308Z,36.88
2022-07-30T11:08:36.749Z,36.72
2022-07-30T11:12:02.254Z,36.85
2022-07-30T11:14:16.373Z,36.82
2022-07-30T11:16:43.369Z,36.87
2022-07-30T11:19:55.160Z,36.61
2022-07-30T11:22:27.583Z,36.58
2022-07-30T11:24:55.210Z,36.71
2022-07-30T11:27:41.494Z,36.68
2022-07-30T11:30:18.310Z,36.89
2022-07-30T11:32:52.003Z,36.82
2022-07-30T11:35:24.511Z,36.76
2022-07-30T11:38:05.200Z,36.73
2022-07-30T11:40:36.471Z,36.35
2022-07-30T11:43:36.123Z,36.26
2022-07-30T11:46:16.260Z,36.31
2022-07-30T11:48:58.727Z,36.18
2022-07-30T11:51:26.802Z,36.42
2022-07-30T11:54:19.998Z,36.44
2022-07-30T11:56:56.641Z,36.36
2022-07-30T11:59:24.823Z,36.52
2022-07-30T12:01:57.237Z,36.49
2022-07-30T12:04:24.941Z,36.77
2022-07-30T12:06:52.212Z,36.80
2022-07-30T12:09:30.836Z,36.37
2022-07-30T12:11:58.955Z,36.24
2022-07-30T12:14:39.132Z,35.85
2022-07-30T12:17:06.210Z,36.03
2022-07-30T12:19:49.015Z,36.28
2022-07-30T12:22:16.588Z,36.20
2022-07-30T12:24:43.941Z,36.31
2022-07-30T12:27:11.103Z,36.41
2022-07-30T12:29:38.728Z,36.51
2022-07-30T12:32:06.303Z,36.37
2022-07-30T12:34:34.216Z,36.52
2022-07-30T12:37:10.847Z,36.37
2022-07-30T12:39:37.854Z,36.36
2022-07-30T12:42:05.193Z,36.39
2022-07-30T12:44:45.115Z,36.52
2022-07-30T12:47:26.671Z,36.37
2022-07-30T12:49:56.312Z,36.26
2022-07-30T12:52:29.438Z,36.27
2022-07-30T12:55:13.008Z,36.18
2022-07-30T12:57:57.888Z,36.11
2022-07-30T13:00:45.045Z,36.11
2022-07-30T13:03:27.775Z,36.46
2022-07-30T13:05:57.044Z,36.73
2022-07-30T13:08:53.455Z,36.39
2022-07-30T13:11:23.374Z,36.48
2022-07-30T13:13:52.177Z,36.47
2022-07-30T13:16:20.765Z,36.28
2022-07-30T13:18:48.102Z,36.49
2022-07-30T13:21:15.237Z,36.56
2022-07-30T13:23:42.717Z,36.66
2022-07-30T13:26:11.129Z,36.59
2022-07-30T13:28:39.106Z,36.38
2022-07-30T13:31:07.909Z,36.48
2022-07-30T13:33:38.783Z,36.50
2022-07-30T13:36:07.518Z,36.49
2022-07-30T13:38:34.891Z,36.55
2022-07-30T13:41:03.157Z,36.52
2022-07-30T13:43:33.635Z,36.54
2022-07-30T13:46:01.800Z,36.59
2022-07-30T13:48:28.881Z,36.31
2022-07-30T13:50:56.272Z,36.32
2022-07-30T13:53:23.481Z,36.49
2022-07-30T13:55:50.696Z,36.43
2022-07-30T13:58:17.750Z,36.25
2022-07-30T14:00:45.674Z,35.93
2022-07-30T14:03:12.947Z,35.88
2022-07-30T14:05:41.978Z,35.80
2022-07-30T14:08:11.195Z,35.79
2022-07-30T14:10:40.124Z,36.12
2022-07-30T14:13:08.116Z,36.05
2022-07-30T14:15:35.263Z,35.87
2022-07-30T14:18:03.032Z,35.99
2022-07-30T14:20:30.606Z,36.02
2022-07-30T14:23:00.949Z,36.15
2022-07-30T14:25:28.220Z,36.32
2022-07-30T14:27:55.334Z,36.37
2022-07-30T14:30:23.949Z,36.40
2022-07-30T14:32:57.386Z,36.15
2022-07-30T14:35:26.662Z,36.05
2022-07-30T14:37:53.701Z,36.04
2022-07-30T14:40:20.808Z,36.08
2022-07-30T14:42:48.619Z,36.14
2022-07-30T14:45:15.808Z,35.81
2022-07-30T14:47:43.437Z,35.72
2022-07-30T14:50:10.686Z,35.65
2022-07-30T14:52:39.059Z,35.58
2022-07-30T14:55:10.009Z,35.56
2022-07-30T14:57:37.789Z,35.35
2022-07-30T15:00:12.002Z,35.36
2022-07-30T15:02:39.333Z,35.31
2022-07-30T15:05:07.920Z,35.20
2022-07-30T15:07:35.390Z,35.34
2022-07-30T15:10:04.013Z,35.37
2022-07-30T15:12:31.145Z,35.02
2022-07-30T15:14:58.629Z,34.82
2022-07-30T15:17:26.649Z,34.76
2022-07-30T15:19:53.985Z,34.91
2022-07-30T15:22:21.035Z,34.96
2022-07-30T15:24:49.062Z,35.02
2022-07-30T15:27:16.173Z,35.07
2022-07-30T15:29:43.221Z,35.14
2022-07-30T15:32:10.412Z,35.15
2022-07-30T15:34:37.447Z,35.19
2022-07-30T15:37:05.573Z,35.02
2022-07-30T15:39:33.917Z,34.76
2022-07-30T15:42:02.758Z,34.67
2022-07-30T15:44:30.094Z,34.70
2022-07-30T15:46:57.572Z,34.63
2022-07-30T15:49:24.805Z,34.58
2022-07-30T15:51:56.064Z,34.41
2022-07-30T15:54:24.544Z,34.18
2022-07-30T15:56:54.241Z,34.04
2022-07-30T15:59:29.265Z,33.93
2022-07-30T16:01:56.834Z,33.84
2022-07-30T16:04:31.317Z,33.65
2022-07-30T16:07:04.409Z,33.57
2022-07-30T16:09:31.723Z,33.50
2022-07-30T16:11:59.808Z,33.19
2022-07-30T16:14:27.554Z,33.07
2022-07-30T16:16:54.827Z,33.10
2022-07-30T16:19:22.248Z,32.90
2022-07-30T16:21:49.506Z,32.72
2022-07-30T16:24:17.160Z,32.60
2022-07-30T16:26:44.766Z,32.44
2022-07-30T16:29:13.915Z,32.35
2022-07-30T16:31:41.486Z,32.33
2022-07-30T16:34:11.524Z,32.25
2022-07-30T16:36:38.753Z,32.15
2022-07-30T16:39:06.483Z,32.13
2022-07-30T16:41:33.748Z,32.05
2022-07-30T16:44:00.824Z,31.96
2022-07-30T16:46:27.742Z,31.84
2022-07-30T16:48:55.171Z,31.74
2022-07-30T16:51:22.336Z,31.60
2022-07-30T16:53:49.283Z,31.42
2022-07-30T16:56:17.176Z,31.28
2022-07-30T16:58:44.324Z,31.15
2022-07-30T17:01:11.245Z,31.01
2022-07-30T17:03:38.473Z,30.87
2022-07-30T17:06:05.357Z,30.76
2022-07-30T17:08:32.235Z,30.60
2022-07-30T17:10:59.386Z,30.38
2022-07-30T17:13:26.462Z,30.18
2022-07-30T17:15:53.495Z,30.02
2022-07-30T17:18:20.747Z,29.91
2022-07-30T17:20:48.117Z,29.79
2022-07-30T17:23:15.220Z,29.63
2022-07-30T17:25:42.247Z,29.50
2022-07-30T17:28:09.541Z,29.36
2022-07-30T17:30:37.096Z,29.23
2022-07-30T17:33:06.561Z,29.10
2022-07-30T17:35:33.860Z,28.94
2022-07-30T17:38:01.577Z,28.85
2022-07-30T17:40:31.594Z,28.65
2022-07-30T17:43:04.377Z,28.50
2022-07-30T17:45:33.066Z,28.32
2022-07-30T17:48:01.922Z,28.30
2022-07-30T17:50:30.462Z,28.22
2022-07-30T17:52:57.898Z,28.21
2022-07-30T17:55:25.781Z,28.04
2022-07-30T17:57:52.930Z,27.92
2022-07-30T18:00:20.258Z,27.76
2022-07-30T18:02:47.108Z,27.64
2022-07-30T18:05:15.816Z,27.51
2022-07-30T18:07:44.118Z,27.45
2022-07-30T18:10:12.653Z,27.43
2022-07-30T18:12:45.457Z,27.32
2022-07-30T18:15:17.645Z,27.25
2022-07-30T18:17:45.000Z,27.16
2022-07-30T18:20:12.135Z,27.09
2022-07-30T18:22:40.426Z,27.00
2022-07-30T18:25:19.203Z,26.92
2022-07-30T18:27:47.364Z,26.83
2022-07-30T18:30:15.098Z,26.73
2022-07-30T18:32:42.123Z,26.60
2022-07-30T18:35:14.028Z,26.45
2022-07-30T18:37:45.846Z,26.34
2022-07-30T18:40:17.701Z,26.30
2022-07-30T18:42:48.039Z,26.24
2022-07-30T18:45:15.028Z,26.15
2022-07-30T18:47:45.716Z,26.03
2022-07-30T18:50:14.749Z,25.95
2022-07-30T18:52:42.768Z,25.81
2022-07-30T18:55:14.451Z,25.74
2022-07-30T18:57:41.962Z,25.67
2022-07-30T19:00:10.677Z,25.59
2022-07-30T19:02:57.859Z,25.57
2022-07-30T19:05:25.147Z,25.49
2022-07-30T19:07:57.254Z,25.50
2022-07-30T19:10:27.469Z,25.48
2022-07-30T19:12:55.885Z,25.40
2022-07-30T19:15:23.638Z,25.38
2022-07-30T19:17:51.634Z,25.33
2022-07-30T19:20:20.206Z,25.25
2022-07-30T19:22:47.774Z,25.23
2022-07-30T19:25:15.096Z,25.19
2022-07-30T19:27:42.432Z,25.16
2022-07-30T19:30:09.997Z,25.12
2022-07-30T19:32:37.020Z,25.06
2022-07-30T19:35:04.948Z,25.04
2022-07-30T19:37:37.530Z,24.94
2022-07-30T19:40:07.569Z,24.90
2022-07-30T19:42:34.618Z,24.90
2022-07-30T19:45:11.117Z,24.90
2022-07-30T19:47:42.325Z,24.88
2022-07-30T19:50:11.305Z,24.89
2022-07-30T19:55:34.962Z,24.74
2022-07-30T19:58:04.357Z,24.72
2022-07-30T20:00:32.215Z,24.71
2022-07-30T20:03:03.476Z,24.63
2022-07-30T20:05:31.983Z,24.58
2022-07-30T20:08:24.462Z,24.52
2022-07-30T20:10:52.398Z,24.55
2022-07-30T20:13:19.572Z,24.56
2022-07-30T20:15:46.770Z,24.56
2022-07-30T20:18:14.726Z,24.50
2022-07-30T20:20:42.060Z,24.54
2022-07-30T20:23:09.767Z,24.56
2022-07-30T20:25:38.883Z,24.60
2022-07-30T20:28:08.943Z,24.64
2022-07-30T20:30:37.704Z,24.71
2022-07-30T20:33:05.051Z,24.76
2022-07-30T20:35:34.379Z,24.86
2022-07-30T20:38:05.752Z,24.95
2022-07-30T20:40:35.067Z,25.03
2022-07-30T20:43:06.388Z,25.19
2022-07-30T20:45:40.343Z,25.22
2022-07-30T20:48:17.473Z,25.26
2022-07-30T20:50:52.926Z,25.28
2022-07-30T20:53:22.340Z,25.28
2022-07-30T20:55:50.573Z,25.20
2022-07-30T20:58:19.894Z,25.17
2022-07-30T21:00:49.513Z,24.98
2022-07-30T21:03:21.991Z,24.71
2022-07-30T21:05:51.286Z,24.47
2022-07-30T21:11:06.717Z,24.18
2022-07-30T21:13:37.448Z,23.89
2022-07-30T21:16:15.479Z,23.61
2022-07-30T21:18:49.882Z,23.42
2022-07-30T21:21:41.866Z,23.25
2022-07-30T21:24:19.373Z,23.09
2022-07-30T21:26:51.531Z,23.00
2022-07-30T21:29:21.538Z,22.96
2022-07-30T21:32:11.428Z,22.94
2022-07-30T21:34:42.109Z,22.81
2022-07-30T21:37:10.396Z,22.71
2022-07-30T21:39:41.970Z,22.71
2022-07-30T21:42:09.491Z,22.69
2022-07-30T21:44:37.540Z,22.65
2022-07-30T21:47:10.411Z,22.62
2022-07-30T21:49:39.741Z,22.62
2022-07-30T21:52:08.982Z,22.58
2022-07-30T21:54:48.236Z,22.50
2022-07-30T21:57:26.269Z,22.47
2022-07-30T21:59:55.102Z,22.39
2022-07-30T22:02:23.125Z,22.35
2022-07-30T22:04:51.893Z,22.39
2022-07-30T22:07:19.086Z,22.48
2022-07-30T22:09:49.308Z,22.54
2022-07-30T22:12:18.001Z,22.49
2022-07-30T22:14:45.264Z,22.48
2022-07-30T22:17:23.656Z,22.51
2022-07-30T22:20:04.541Z,22.49
2022-07-30T22:22:36.479Z,22.49
2022-07-30T22:25:06.942Z,22.32
2022-07-30T22:27:56.761Z,22.29
2022-07-30T22:30:26.372Z,22.30
2022-07-30T22:32:54.663Z,22.27
2022-07-30T22:35:33.639Z,22.20
2022-07-30T22:38:02.833Z,22.24
2022-07-30T22:40:30.342Z,22.26
2022-07-30T22:43:04.163Z,22.25
2022-07-30T22:48:26.317Z,22.14
2022-07-30T22:50:55.415Z,22.13
2022-07-30T22:54:02.774Z,22.20
2022-07-30T22:56:14.016Z,22.17
2022-07-30T22:58:43.016Z,22.10
2022-07-30T23:01:10.995Z,22.14
2022-07-30T23:03:38.639Z,22.21
2022-07-30T23:06:14.471Z,22.11
2022-07-30T23:08:43.285Z,22.10
2022-07-30T23:11:10.702Z,22.15
2022-07-30T23:12:15.295Z,24.89
2022-07-30T23:12:32.621Z,24.23
2022-07-30T23:13:38.870Z,22.19
2022-07-30T23:16:07.025Z,22.13
2022-07-30T23:18:37.707Z,22.11
2022-07-30T23:21:05.093Z,22.07
2022-07-30T23:23:34.125Z,22.08
2022-07-30T23:26:03.324Z,22.07
2022-07-30T23:28:30.393Z,22.04
2022-07-30T23:30:57.702Z,22.00
2022-07-30T23:33:24.869Z,21.98
2022-07-30T23:35:52.112Z,21.92
2022-07-30T23:38:19.247Z,21.90
2022-07-30T23:40:46.599Z,21.82
2022-07-30T23:43:14.241Z,21.76
2022-07-30T23:45:41.311Z,21.72
2022-07-30T23:48:08.431Z,21.65
2022-07-30T23:50:35.930Z,21.67
2022-07-30T23:53:04.581Z,21.66
2022-07-30T23:55:32.518Z,21.65
2022-07-30T23:58:00.541Z,21.70
